메인 페이지
METAR-TAF:

METAR-TAF

공항 :

호세 마르티 국제공항

아바나, 쿠바

위도: 22-59N, 경도: 082-24W, 고도: 59m

현재 날씨관측

예보는 28분 전, 16:55시(UTC)에 발표되었습니다.
서남서8kt풍과 풍을 오가는
온도 29°C
습도 58%
기압 1014 hPa
시정: 9000m
고도 3000ft 상공 구름 조금

METAR: MUHA 141655Z 24008KT 180V280 9000 FEW030 29/20 Q1014

시각: 12:23 (17:23 UTC)

예보

예보는 6 시간 23분 전, 11:00시(UTC)에 발표되었습니다.
예보 대상 시간: 14일 12시부터 15일 12시까지 (UTC)
여러 방향의 바람 3kt
시정: 9000m
고도 3000ft 상공 구름 조금
전환 중
14일 14시부터 14일 16시까지 (UTC)
서북서10kt
일시적
14일 17시부터 14일 23시까지 (UTC)
시정: 3000m
고도 2500ft 상공 구름 많음
소나기
전환 중
15일 00시부터 15일 02시까지 (UTC)
북북서8kt

TAF: MUHA 141100Z 1412/1512 VRB03KT 9000 FEW030 BECMG 1414/1416 29010KT TEMPO 1417/1423 3000 SHRA BKN025 BECMG 1500/1502 34008KT

4,000개 이상의 공항 관측 자료 및 예보 (METAR 및 TAF 보고).

지도상에서 검색 가능한 기상관측소가 노란 점과 빨간 점으로 표시되어 있습니다.

기상관측소 명을 보려면 표시 위로 마우스를 이동하세요.

날씨 관측과 예보를 보려면 클릭하세요.

지도 변경 : 확대하려면 엑스 표시가 있는 녹색 버튼, 축소하려면 빼기 표시가 있는 녹색 버튼, 다음 페이지의 지도를 보려면 녹색 화살표를 클릭하세요.


METAR-TAF: